Time;durP1;ratioP1;P1;durP2;ratioP2;P2;SDS_P1;SDS_P2;PMS_P1;PMS_P2;Temp;Humidity;BMP_temperature;BMP_pressure;BME280_temperature;BME280_humidity;BME280_pressure;Samples;Min_cycle;Max_cycle;Signal;HPM_P1;HPM_P2
2022/04/30 00:00:29;;;;;;;17.30;9.08;;;;;;;10.73;63.61;100298.27;1691582;84;21124;-67
2022/04/30 00:03:00;;;;;;;19.00;9.38;;;;;;;10.68;63.82;100299.18;1691312;84;21027;-68
2022/04/30 00:05:32;;;;;;;17.50;8.75;;;;;;;10.65;64.10;100291.52;1631416;87;21117;-68
2022/04/30 00:08:00;;;;;;;23.20;9.25;;;;;;;10.64;64.32;100295.41;1690802;84;21415;-66
2022/04/30 00:10:31;;;;;;;27.22;8.88;;;;;;;10.65;64.53;100294.83;1631676;87;21022;-66
2022/04/30 00:12:58;;;;;;;14.10;7.97;;;;;;;10.66;64.68;100291.77;1670550;84;21116;-69
2022/04/30 00:15:26;;;;;;;17.48;8.20;;;;;;;10.67;64.72;100287.91;1631456;87;21019;-69
2022/04/30 00:17:58;;;;;;;15.25;8.95;;;;;;;10.68;64.79;100284.61;1631778;87;21523;-69
2022/04/30 00:20:25;;;;;;;18.10;8.63;;;;;;;10.68;65.14;100294.25;1700892;84;21088;-68
2022/04/30 00:22:52;;;;;;;16.80;10.10;;;;;;;10.66;65.38;100286.84;1700035;84;21478;-68
2022/04/30 00:25:21;;;;;;;18.25;8.33;;;;;;;10.64;65.34;100291.27;1701590;84;21231;-70
2022/04/30 00:27:48;;;;;;;15.98;8.53;;;;;;;10.63;65.87;100286.07;1702261;84;21517;-68
2022/04/30 00:30:17;;;;;;;16.77;8.63;;;;;;;10.53;66.72;100279.59;1682179;84;21085;-70
2022/04/30 00:32:43;;;;;;;15.35;8.80;;;;;;;10.43;67.24;100278.35;1701125;84;21593;-68
2022/04/30 00:35:14;;;;;;;18.37;8.13;;;;;;;10.42;67.73;100278.91;1697440;84;21007;-69
2022/04/30 00:37:45;;;;;;;14.63;7.58;;;;;;;10.44;68.07;100275.30;1701348;84;21513;-69
2022/04/30 00:40:12;;;;;;;12.60;7.25;;;;;;;10.46;68.32;100268.93;1697347;84;21069;-70
2022/04/30 00:42:41;;;;;;;15.85;8.50;;;;;;;10.51;68.57;100270.80;1701484;84;21033;-67
2022/04/30 00:45:15;;;;;;;20.97;9.08;;;;;;;10.54;68.50;100268.02;1701975;84;21025;-67
2022/04/30 00:47:42;;;;;;;18.80;10.35;;;;;;;10.55;68.62;100264.13;1661315;86;21085;-68
2022/04/30 00:50:10;;;;;;;20.32;9.65;;;;;;;10.56;68.87;100257.52;1660105;86;21863;-70
2022/04/30 00:52:38;;;;;;;20.65;9.93;;;;;;;10.54;69.01;100255.05;1658227;85;21046;-68
2022/04/30 00:55:06;;;;;;;18.57;8.63;;;;;;;10.55;68.99;100251.19;1695761;84;21064;-70
2022/04/30 00:57:32;;;;;;;19.35;9.80;;;;;;;10.54;68.91;100255.05;1700296;84;21073;-67
2022/04/30 01:00:01;;;;;;;15.08;8.03;;;;;;;10.53;69.01;100253.42;1700574;84;21026;-69
2022/04/30 01:02:29;;;;;;;15.00;7.62;;;;;;;10.51;69.23;100243.83;1701233;84;21165;-68
2022/04/30 01:05:04;;;;;;;12.00;6.28;;;;;;;10.51;69.31;100247.97;1670322;84;21056;-70
2022/04/30 01:07:33;;;;;;;17.40;7.42;;;;;;;10.52;69.20;100241.33;1670495;85;21075;-68
2022/04/30 01:10:01;;;;;;;14.18;7.33;;;;;;;10.53;69.19;100236.89;1656614;86;21634;-68
2022/04/30 01:12:29;;;;;;;14.68;6.55;;;;;;;10.56;69.42;100236.28;1702338;84;21073;-69
2022/04/30 01:14:58;;;;;;;14.20;6.20;;;;;;;10.58;69.56;100230.45;1701479;84;21546;-70
2022/04/30 01:17:26;;;;;;;11.78;5.97;;;;;;;10.60;69.48;100230.98;1701050;84;21548;-69
2022/04/30 01:19:53;;;;;;;10.55;5.80;;;;;;;10.61;69.43;100235.36;1696540;84;21014;-68
2022/04/30 01:22:24;;;;;;;12.10;5.97;;;;;;;10.62;69.29;100232.05;1701923;84;21069;-69
2022/04/30 01:25:00;;;;;;;12.50;5.25;;;;;;;10.61;69.38;100233.98;1701440;84;21018;-67
2022/04/30 01:27:28;;;;;;;12.07;5.75;;;;;;;10.58;69.39;100227.70;1705857;83;21258;-67
2022/04/30 01:30:00;;;;;;;9.13;5.40;;;;;;;10.52;69.32;100228.92;1701556;84;21056;-70
2022/04/30 01:38:15;;;;;;;10.45;5.33;;;;;;;10.45;70.07;100230.66;1686578;84;21596;-68
2022/04/30 01:40:43;;;;;;;10.10;5.67;;;;;;;10.46;70.22;100230.36;1701646;84;21171;-69
2022/04/30 01:43:16;;;;;;;10.58;5.72;;;;;;;10.49;70.32;100225.40;1697889;84;20986;-68
2022/04/30 01:45:44;;;;;;;10.93;5.95;;;;;;;10.47;70.33;100232.02;1701485;84;21061;-68
2022/04/30 01:48:14;;;;;;;9.70;4.97;;;;;;;10.34;70.36;100227.25;1697416;84;21610;-68
2022/04/30 01:50:46;;;;;;;8.60;5.50;;;;;;;10.26;70.65;100221.88;1701414;84;21017;-68
2022/04/30 01:53:16;;;;;;;8.60;5.65;;;;;;;10.28;71.01;100221.03;1697595;84;21150;-69
2022/04/30 01:55:44;;;;;;;10.30;5.15;;;;;;;10.21;71.02;100220.59;1701766;84;21494;-68
2022/04/30 01:58:13;;;;;;;8.00;4.70;;;;;;;10.22;71.11;100219.45;1674051;85;21144;-68
2022/04/30 02:00:43;;;;;;;13.88;5.95;;;;;;;10.27;71.14;100222.71;1671374;85;21026;-69
2022/04/30 02:03:16;;;;;;;10.15;5.12;;;;;;;10.31;71.09;100220.97;1670166;85;21602;-68
2022/04/30 02:05:47;;;;;;;9.68;5.78;;;;;;;10.33;70.94;100215.44;1678337;84;22193;-67
2022/04/30 02:08:20;;;;;;;9.38;5.60;;;;;;;10.36;70.83;100222.27;1647394;86;22059;-68
2022/04/30 02:10:50;;;;;;;7.70;4.55;;;;;;;10.39;70.76;100215.35;1700624;83;21608;-68
2022/04/30 02:13:17;;;;;;;12.00;6.22;;;;;;;10.43;70.73;100217.74;1701043;84;21525;-71
2022/04/30 02:15:46;;;;;;;10.78;5.85;;;;;;;10.43;70.57;100218.57;1701202;83;21084;-68
2022/04/30 02:18:15;;;;;;;9.93;5.47;;;;;;;10.43;70.54;100212.23;1698308;84;21087;-68
2022/04/30 02:20:44;;;;;;;9.33;5.03;;;;;;;10.41;70.54;100215.30;1692230;84;21023;-68
2022/04/30 02:23:11;;;;;;;8.88;5.03;;;;;;;10.41;70.65;100212.54;1689737;84;21005;-70
2022/04/30 02:25:41;;;;;;;11.68;5.05;;;;;;;10.42;70.58;100216.92;1691087;84;21022;-68
2022/04/30 02:28:10;;;;;;;8.90;6.12;;;;;;;10.43;70.61;100215.81;1691823;84;20991;-69
2022/04/30 02:30:42;;;;;;;18.82;8.20;;;;;;;10.46;70.87;100230.91;1631654;87;21644;-68
2022/04/30 02:33:16;;;;;;;;;;;;;;;10.42;70.90;100225.18;1649868;85;21042;-70
2022/04/30 02:35:46;;;;;;;14.93;7.83;;;;;;;10.39;70.68;100232.67;1667092;85;20142;-68
2022/04/30 02:38:13;;;;;;;13.25;7.72;;;;;;;10.39;70.44;100231.88;1649237;86;21111;-69
2022/04/30 02:40:41;;;;;;;14.58;7.25;;;;;;;10.40;70.26;100226.06;1653355;85;21066;-69
2022/04/30 02:43:16;;;;;;;12.45;7.10;;;;;;;10.43;70.06;100222.70;1692056;84;21055;-69
2022/04/30 02:45:47;;;;;;;13.25;6.90;;;;;;;10.44;69.88;100220.20;1691346;84;21510;-70
2022/04/30 02:48:15;;;;;;;12.15;6.65;;;;;;;10.42;70.11;100223.80;1687293;84;21042;-68
2022/04/30 02:50:45;;;;;;;13.62;7.08;;;;;;;10.44;70.09;100228.45;1690262;84;21548;-70
2022/04/30 02:53:11;;;;;;;12.63;6.85;;;;;;;10.42;70.46;100227.14;1632252;87;21541;-69
2022/04/30 02:55:39;;;;;;;15.80;7.70;;;;;;;10.37;70.58;100235.48;1691235;84;21056;-68
2022/04/30 03:00:41;;;;;;;14.10;7.92;;;;;;;10.14;71.39;100233.36;1603360;86;21087;-68
2022/04/30 03:03:13;;;;;;;13.70;8.20;;;;;;;10.07;71.60;100237.88;1691404;84;21042;-68
2022/04/30 03:05:41;;;;;;;17.12;8.08;;;;;;;10.02;71.82;100244.84;1631657;87;21094;-70
2022/04/30 03:08:14;;;;;;;18.82;8.35;;;;;;;9.97;71.98;100250.41;1654651;86;21230;-68
2022/04/30 03:10:45;;;;;;;13.50;7.67;;;;;;;9.97;72.19;100253.17;1688808;84;21022;-69
2022/04/30 03:13:14;;;;;;;13.20;7.45;;;;;;;9.96;72.29;100251.55;1628024;87;21026;-70
2022/04/30 03:15:49;;;;;;;20.80;6.85;;;;;;;9.96;72.42;100259.22;1647487;85;21482;-69
2022/04/30 03:23:54;;;;;;;11.83;6.00;;;;;;;10.12;72.87;100254.87;1692060;84;21011;-68
2022/04/30 03:26:26;;;;;;;7.25;4.50;;;;;;;10.13;72.64;100254.31;1691152;84;21046;-70
2022/04/30 03:28:54;;;;;;;6.17;4.35;;;;;;;10.14;72.64;100260.08;1686598;84;21058;-67
2022/04/30 03:31:21;;;;;;;7.72;3.95;;;;;;;10.18;72.56;100259.75;1690846;84;21019;-71
2022/04/30 03:33:51;;;;;;;8.28;4.70;;;;;;;10.20;72.48;100256.94;1692181;84;21360;-69
2022/04/30 03:36:18;;;;;;;6.95;3.22;;;;;;;10.18;72.48;100248.73;1667811;84;21053;-71
2022/04/30 03:38:45;;;;;;;6.78;4.05;;;;;;;10.19;72.94;100253.94;1689773;84;21090;-68
2022/04/30 03:41:17;;;;;;;6.53;4.10;;;;;;;10.22;73.21;100251.95;1645233;87;21066;-69
2022/04/30 03:43:45;;;;;;;8.05;4.05;;;;;;;10.26;73.20;100252.73;1634017;87;21042;-70
2022/04/30 03:46:12;;;;;;;6.03;3.70;;;;;;;10.28;73.15;100251.33;1648973;87;21131;-68
2022/04/30 03:48:38;;;;;;;8.18;4.35;;;;;;;10.29;73.46;100252.95;1652964;86;21114;-69
2022/04/30 03:51:05;;;;;;;6.40;3.95;;;;;;;10.24;73.89;100254.41;1652757;86;21008;-69
2022/04/30 03:53:34;;;;;;;7.85;4.47;;;;;;;10.10;74.36;100251.59;1689199;84;21045;-69
2022/04/30 03:56:08;;;;;;;7.42;3.67;;;;;;;10.09;74.86;100252.72;1689260;84;21022;-69
2022/04/30 03:58:35;;;;;;;7.45;3.92;;;;;;;10.13;75.20;100251.56;1690121;84;21230;-68
2022/04/30 04:01:05;;;;;;;6.97;3.90;;;;;;;10.17;75.44;100251.20;1690065;84;21023;-69
2022/04/30 04:03:37;;;;;;;6.20;3.83;;;;;;;10.12;75.52;100253.49;1685987;84;21061;-69
2022/04/30 04:06:05;;;;;;;8.80;4.62;;;;;;;10.04;75.81;100260.50;1690386;84;21094;-69
2022/04/30 04:08:31;;;;;;;8.45;4.28;;;;;;;10.00;76.05;100260.83;1689320;84;21035;-68
2022/04/30 04:10:58;;;;;;;5.95;3.80;;;;;;;10.03;76.43;100262.98;1631722;87;21290;-70
2022/04/30 04:18:56;;;;;;;3.75;2.70;;;;;;;10.14;77.02;100258.70;1649818;86;21074;-69
2022/04/30 04:21:23;;;;;;;4.35;2.10;;;;;;;10.10;75.62;100260.67;1652988;86;21031;-70
2022/04/30 04:26:42;;;;;;;3.77;1.72;;;;;;;10.06;71.28;100259.66;1629476;87;21547;-69
2022/04/30 04:29:10;;;;;;;2.90;1.27;;;;;;;10.02;68.62;100255.84;1662434;85;21063;-69
2022/04/30 04:31:41;;;;;;;2.50;1.50;;;;;;;10.04;69.29;100256.92;1690245;84;21077;-68
2022/04/30 04:34:11;;;;;;;5.12;1.98;;;;;;;10.03;68.51;100247.84;1689771;84;21088;-67
2022/04/30 04:36:39;;;;;;;4.05;1.92;;;;;;;10.03;68.83;100247.84;1689687;84;21214;-68
2022/04/30 04:39:14;;;;;;;4.10;1.95;;;;;;;10.07;69.09;100241.18;1688013;84;21098;-68
2022/04/30 04:41:43;;;;;;;6.62;2.33;;;;;;;10.13;68.75;100246.06;1682152;84;21003;-68
2022/04/30 04:44:11;;;;;;;4.62;2.42;;;;;;;10.15;68.30;100247.37;1689595;84;21061;-67
2022/04/30 04:46:38;;;;;;;4.45;2.77;;;;;;;10.19;68.25;100240.17;1691246;84;21058;-68
2022/04/30 04:49:08;;;;;;;4.75;2.65;;;;;;;10.27;68.49;100243.37;1631394;87;21635;-69
2022/04/30 04:51:35;;;;;;;4.92;2.17;;;;;;;10.35;68.80;100245.44;1628362;87;21098;-68
2022/04/30 04:54:04;;;;;;;6.35;2.83;;;;;;;10.43;69.01;100246.67;1631969;86;21036;-70
2022/04/30 04:56:34;;;;;;;2.90;2.25;;;;;;;10.43;68.57;100248.88;1692246;84;21055;-69
2022/04/30 04:59:01;;;;;;;2.85;2.02;;;;;;;10.37;67.37;100247.34;1690898;84;21081;-68
2022/04/30 05:01:29;;;;;;;4.72;2.15;;;;;;;10.33;64.77;100248.49;1689621;84;21168;-68
2022/04/30 05:03:58;;;;;;;3.02;1.70;;;;;;;10.34;64.19;100245.98;1688783;84;21065;-66
2022/04/30 05:06:30;;;;;;;7.22;1.82;;;;;;;10.29;64.02;100255.70;1685489;84;21048;-69
2022/04/30 05:08:57;;;;;;;3.55;2.15;;;;;;;10.20;64.98;100259.70;1685630;84;21014;-68
2022/04/30 05:11:26;;;;;;;7.12;2.52;;;;;;;10.13;67.13;100256.52;1683746;83;21623;-69
2022/04/30 05:13:54;;;;;;;7.97;2.75;;;;;;;10.02;69.10;100253.09;1688241;84;21936;-67
2022/04/30 05:16:22;;;;;;;3.40;2.52;;;;;;;9.91;70.33;100264.00;1691210;84;22138;-68
2022/04/30 05:18:57;;;;;;;7.35;2.70;;;;;;;9.85;70.80;100272.34;1623828;87;21512;-67
2022/04/30 05:21:24;;;;;;;5.73;2.97;;;;;;;9.84;71.46;100272.63;1647920;86;21567;-68
2022/04/30 05:23:53;;;;;;;7.87;3.30;;;;;;;9.85;71.94;100277.02;1652499;86;21581;-67
2022/04/30 05:26:21;;;;;;;6.42;3.98;;;;;;;9.88;72.10;100273.66;1653764;86;21136;-68
2022/04/30 05:28:51;;;;;;;9.15;4.67;;;;;;;9.94;72.28;100274.41;1666278;84;21077;-68
2022/04/30 05:31:18;;;;;;;8.28;5.00;;;;;;;10.04;72.52;100272.06;1686370;84;21022;-68
2022/04/30 05:33:45;;;;;;;10.85;5.50;;;;;;;10.17;72.62;100275.44;1690245;84;21046;-68
2022/04/30 05:36:16;;;;;;;11.00;6.80;;;;;;;10.27;72.39;100277.80;1691796;84;21106;-68
2022/04/30 05:38:48;;;;;;;14.25;7.25;;;;;;;10.32;72.53;100273.00;1690348;84;21205;-69
2022/04/30 05:41:15;;;;;;;14.03;8.48;;;;;;;10.44;72.90;100273.91;1689161;84;21050;-67
2022/04/30 05:43:44;;;;;;;15.72;9.35;;;;;;;10.54;73.09;100276.29;1687033;84;21492;-68
2022/04/30 05:46:13;;;;;;;14.95;8.85;;;;;;;10.59;72.84;100271.48;1691866;84;21037;-68
2022/04/30 05:48:40;;;;;;;15.98;8.73;;;;;;;10.70;72.95;100266.63;1686342;84;21057;-68
2022/04/30 05:51:29;;;;;;;17.07;8.18;;;;;;;10.86;72.97;100269.67;1681310;84;21327;-69
2022/04/30 05:53:57;;;;;;;13.88;7.70;;;;;;;10.98;72.70;100270.55;1703710;82;21080;-68
2022/04/30 05:56:27;;;;;;;12.23;7.15;;;;;;;11.14;72.26;100274.65;1703574;82;21023;-70
2022/04/30 05:58:57;;;;;;;10.25;6.05;;;;;;;11.28;72.02;100279.35;1705023;82;22144;-68
2022/04/30 06:01:24;;;;;;;17.32;6.50;;;;;;;11.42;71.52;100275.22;1704518;82;21069;-68
2022/04/30 06:03:55;;;;;;;12.88;7.08;;;;;;;11.52;70.85;100276.94;1706237;82;21591;-68
2022/04/30 06:06:23;;;;;;;9.90;5.25;;;;;;;11.53;69.00;100279.98;1738001;82;21048;-68
2022/04/30 06:08:53;;;;;;;7.65;5.08;;;;;;;11.56;68.45;100275.22;1735715;82;21580;-68
2022/04/30 06:11:25;;;;;;;9.73;5.20;;;;;;;11.62;67.74;100279.49;1741003;82;21016;-67
2022/04/30 06:13:55;;;;;;;10.98;4.58;;;;;;;11.67;67.71;100281.31;1733004;82;21017;-67
2022/04/30 06:16:25;;;;;;;9.33;5.03;;;;;;;11.76;67.08;100281.41;1737714;82;21043;-69
2022/04/30 06:18:52;;;;;;;5.95;4.00;;;;;;;11.83;66.62;100276.84;1736117;82;21091;-68
2022/04/30 06:21:20;;;;;;;6.05;3.65;;;;;;;11.92;66.42;100275.00;1735173;82;21068;-69
2022/04/30 06:23:52;;;;;;;8.80;3.60;;;;;;;11.99;64.91;100275.37;1732524;82;21530;-68
2022/04/30 06:26:38;;;;;;;5.45;2.98;;;;;;;12.01;64.10;100276.47;1709901;82;21043;-68
2022/04/30 06:29:10;;;;;;;5.00;3.20;;;;;;;12.03;63.47;100276.95;1710879;82;21034;-67
2022/04/30 06:31:40;;;;;;;7.42;3.55;;;;;;;12.03;62.92;100275.02;1713072;82;21077;-69
2022/04/30 06:34:10;;;;;;;4.55;2.85;;;;;;;12.11;62.85;100273.47;1710521;82;21023;-68
2022/04/30 06:36:37;;;;;;;4.75;2.55;;;;;;;12.20;62.98;100273.55;1709236;82;20975;-68
2022/04/30 06:39:05;;;;;;;4.97;2.75;;;;;;;12.24;61.50;100275.95;1708935;82;21545;-69
2022/04/30 06:41:33;;;;;;;3.83;2.40;;;;;;;12.28;60.88;100280.29;1709044;82;21176;-66
2022/04/30 06:44:00;;;;;;;5.20;3.17;;;;;;;12.34;61.40;100276.27;1709167;82;21066;-68
2022/04/30 06:46:28;;;;;;;5.35;2.65;;;;;;;12.45;61.52;100288.45;1709138;82;21848;-68
2022/04/30 06:48:58;;;;;;;6.08;2.67;;;;;;;12.54;60.95;100290.70;1708325;82;21095;-67
2022/04/30 06:51:25;;;;;;;5.67;2.62;;;;;;;12.57;60.26;100293.41;1707468;84;21073;-69
2022/04/30 06:59:28;;;;;;;11.65;2.87;;;;;;;12.59;58.42;100288.39;1654472;85;21049;-68
2022/04/30 07:02:02;;;;;;;7.92;3.83;;;;;;;12.54;57.28;100288.75;1676101;85;21025;-69
2022/04/30 07:04:29;;;;;;;5.30;3.10;;;;;;;12.53;57.25;100293.22;1693702;84;21545;-71
2022/04/30 07:06:58;;;;;;;10.03;4.08;;;;;;;12.63;57.94;100292.97;1696017;84;21165;-68
2022/04/30 07:09:28;;;;;;;9.35;2.40;;;;;;;12.77;56.86;100284.60;1696102;84;21095;-68
2022/04/30 07:11:55;;;;;;;4.37;2.80;;;;;;;12.86;56.14;100285.22;1698447;83;21055;-68
2022/04/30 07:14:22;;;;;;;4.90;2.60;;;;;;;12.93;55.51;100287.53;1697973;84;21028;-68
2022/04/30 07:16:53;;;;;;;4.15;2.35;;;;;;;13.02;55.79;100288.37;1697503;84;21051;-68
2022/04/30 07:19:22;;;;;;;3.77;2.20;;;;;;;13.14;55.56;100285.01;1698781;84;21760;-69
2022/04/30 07:21:50;;;;;;;3.95;2.42;;;;;;;13.21;54.31;100282.61;1699322;83;21083;-69
2022/04/30 07:24:18;;;;;;;4.03;2.37;;;;;;;13.30;54.02;100284.03;1698370;84;21047;-69
2022/04/30 07:26:47;;;;;;;3.47;2.12;;;;;;;13.39;54.46;100287.63;1705536;83;21028;-69
2022/04/30 07:29:13;;;;;;;5.83;1.98;;;;;;;13.48;53.11;100278.53;1705883;83;21068;-69
2022/04/30 07:31:44;;;;;;;5.62;2.67;;;;;;;13.54;51.68;100289.75;1705018;84;21071;-68
2022/04/30 07:34:11;;;;;;;8.05;2.98;;;;;;;13.57;51.40;100275.27;1705214;84;21091;-71
2022/04/30 07:36:41;;;;;;;4.28;2.62;;;;;;;13.66;52.25;100281.39;1706104;84;20982;-71
2022/04/30 07:39:09;;;;;;;5.85;2.60;;;;;;;13.79;52.21;100273.50;1706335;84;21086;-68
2022/04/30 07:41:39;;;;;;;5.55;2.45;;;;;;;13.88;51.74;100273.52;1705385;84;21066;-68
2022/04/30 07:44:11;;;;;;;3.25;1.85;;;;;;;13.98;52.40;100275.16;1704839;84;21703;-71
2022/04/30 07:46:42;;;;;;;2.67;2.02;;;;;;;14.17;52.50;100270.69;1702032;84;21181;-69
2022/04/30 07:49:10;;;;;;;4.33;1.98;;;;;;;14.28;49.45;100266.20;1706490;84;20948;-70
2022/04/30 07:51:42;;;;;;;2.70;1.70;;;;;;;14.27;50.04;100268.15;1705848;84;21049;-69
2022/04/30 07:54:08;;;;;;;4.33;1.98;;;;;;;14.41;49.52;100267.98;1705602;84;21022;-68
2022/04/30 07:56:40;;;;;;;3.83;2.30;;;;;;;14.45;48.51;100264.78;1703272;84;21794;-71
2022/04/30 07:59:09;;;;;;;5.45;2.52;;;;;;;14.43;47.56;100267.06;1706050;84;21634;-68
2022/04/30 08:01:42;;;;;;;2.20;1.90;;;;;;;14.46;48.55;100254.52;1701362;84;21020;-70
2022/04/30 08:04:10;;;;;;;5.33;2.25;;;;;;;14.66;49.22;100256.34;1705553;83;21118;-70
2022/04/30 08:06:38;;;;;;;5.50;2.12;;;;;;;14.93;49.76;100264.03;1706371;82;21088;-70
2022/04/30 08:09:07;;;;;;;3.25;2.00;;;;;;;15.21;49.40;100263.61;1675492;85;21039;-69
2022/04/30 08:11:37;;;;;;;2.80;1.82;;;;;;;15.33;47.37;100259.56;1672705;85;21138;-68
2022/04/30 08:14:08;;;;;;;5.85;2.30;;;;;;;15.48;47.96;100256.52;1681883;84;21091;-68
2022/04/30 08:16:38;;;;;;;3.85;2.22;;;;;;;15.58;46.66;100252.80;1702329;84;21088;-70
2022/04/30 08:19:07;;;;;;;4.58;2.15;;;;;;;15.70;47.30;100251.24;1686812;84;21031;-70
2022/04/30 08:21:35;;;;;;;4.87;2.35;;;;;;;15.95;47.04;100248.59;1702545;84;21156;-71
2022/04/30 08:24:03;;;;;;;4.35;2.33;;;;;;;16.09;45.69;100246.17;1705851;83;20984;-69
2022/04/30 08:26:32;;;;;;;7.70;4.45;;;;;;;16.17;45.78;100250.25;1732311;81;21063;-70
2022/04/30 08:29:01;;;;;;;5.87;3.37;;;;;;;16.11;43.66;100246.06;1743076;82;21018;-68
2022/04/30 08:31:31;;;;;;;3.83;2.25;;;;;;;15.88;43.11;100233.06;1743510;81;21098;-70
2022/04/30 08:33:59;;;;;;;4.97;2.52;;;;;;;15.91;44.24;100237.94;1716895;82;21982;-69
2022/04/30 08:36:26;;;;;;;4.85;2.22;;;;;;;16.06;42.97;100240.14;1699851;83;21564;-71
2022/04/30 08:38:54;;;;;;;4.05;2.15;;;;;;;16.08;42.83;100238.41;1699273;83;21051;-70
2022/04/30 08:41:21;;;;;;;3.22;1.90;;;;;;;16.16;43.26;100238.08;1699146;84;21044;-69
2022/04/30 08:43:48;;;;;;;4.85;2.33;;;;;;;16.35;43.39;100243.14;1698721;83;21124;-67
2022/04/30 08:46:20;;;;;;;8.75;2.72;;;;;;;16.37;42.29;100247.80;1695490;84;21101;-68
2022/04/30 08:48:49;;;;;;;8.15;4.72;;;;;;;16.29;42.26;100241.14;1697594;84;22110;-69
2022/04/30 08:51:17;;;;;;;9.88;5.37;;;;;;;16.33;42.83;100237.11;1675373;84;21017;-72
2022/04/30 08:53:44;;;;;;;15.28;6.53;;;;;;;16.42;42.97;100239.81;1696319;83;21040;-72
2022/04/30 08:56:11;;;;;;;26.77;11.48;;;;;;;16.43;41.92;100238.64;1699312;83;21016;-68
2022/04/30 08:58:40;;;;;;;17.98;7.20;;;;;;;16.02;41.99;100236.40;1698384;83;21612;-69
2022/04/30 09:01:09;;;;;;;11.85;6.17;;;;;;;15.48;42.80;100239.86;1702012;83;21576;-67
2022/04/30 09:03:37;;;;;;;13.43;5.72;;;;;;;15.24;44.04;100239.34;1702555;83;21059;-69
2022/04/30 09:06:06;;;;;;;13.85;5.12;;;;;;;15.28;44.83;100243.09;1705467;83;21054;-69
2022/04/30 09:08:35;;;;;;;10.63;5.67;;;;;;;15.29;44.55;100239.72;1743691;81;21092;-68
2022/04/30 09:11:07;;;;;;;12.88;4.70;;;;;;;15.21;44.39;100235.86;1741118;82;21162;-67
2022/04/30 09:13:46;;;;;;;9.73;5.30;;;;;;;15.23;44.35;100234.95;1719780;82;21409;-69
2022/04/30 09:16:25;;;;;;;9.80;4.72;;;;;;;15.20;43.98;100236.42;1744321;81;21510;-67
2022/04/30 09:18:55;;;;;;;11.60;4.75;;;;;;;15.21;44.53;100235.86;1742117;81;21002;-68
2022/04/30 09:21:25;;;;;;;10.43;5.20;;;;;;;15.21;44.05;100239.45;1747958;81;21090;-66
2022/04/30 09:24:08;;;;;;;11.80;5.50;;;;;;;15.18;43.84;100231.77;1744439;81;21019;-68
2022/04/30 09:26:43;;;;;;;8.43;4.20;;;;;;;15.05;43.93;100225.31;1741495;81;21042;-69
2022/04/30 09:29:22;;;;;;;7.03;3.50;;;;;;;14.94;44.82;100231.80;1739685;81;21077;-67
2022/04/30 09:31:53;;;;;;;5.00;2.40;;;;;;;15.04;45.30;100230.64;1706206;82;21137;-71
2022/04/30 09:39:56;;;;;;;6.83;3.67;;;;;;;15.16;45.30;100222.98;1741354;81;21081;-68
2022/04/30 09:42:23;;;;;;;9.35;3.10;;;;;;;15.27;45.35;100224.79;1736765;81;21558;-71
2022/04/30 09:44:53;;;;;;;5.50;3.05;;;;;;;15.34;44.96;100227.04;1738554;81;21082;-69
2022/04/30 09:47:19;;;;;;;7.22;2.80;;;;;;;15.43;45.29;100225.61;1736331;82;21066;-68
2022/04/30 09:55:24;;;;;;;5.72;2.33;;;;;;;15.58;43.32;100228.37;1717799;82;21385;-68
2022/04/30 09:57:51;;;;;;;4.87;2.25;;;;;;;15.47;43.26;100229.35;1741705;81;21092;-69
2022/04/30 10:00:19;;;;;;;5.58;2.30;;;;;;;15.43;42.65;100226.42;1740380;81;21069;-70
2022/04/30 10:02:46;;;;;;;4.60;2.80;;;;;;;15.25;41.23;100229.86;1675531;84;21051;-69
2022/04/30 10:05:13;;;;;;;2.98;1.80;;;;;;;15.01;40.53;100225.73;1694837;83;21009;-68
2022/04/30 10:07:47;;;;;;;5.65;2.47;;;;;;;14.65;40.74;100231.15;1743139;81;20998;-67
2022/04/30 10:10:31;;;;;;;2.70;1.95;;;;;;;14.35;40.82;100234.06;1710004;82;21156;-67
2022/04/30 10:13:26;;;;;;;8.85;2.08;;;;;;;14.11;41.04;100233.17;1667844;83;21096;-67
2022/04/30 10:15:58;;;;;;;8.55;4.87;;;;;;;13.97;42.06;100237.52;1691634;83;21077;-67
2022/04/30 10:18:44;;;;;;;4.78;2.83;;;;;;;13.84;41.66;100224.88;1675983;85;20997;-68
2022/04/30 10:21:20;;;;;;;6.72;1.90;;;;;;;13.75;41.64;100229.58;1739145;81;21030;-70
2022/04/30 10:23:47;;;;;;;6.75;2.33;;;;;;;13.66;42.01;100230.16;1690418;83;21001;-65
2022/04/30 10:26:20;;;;;;;2.95;2.05;;;;;;;13.66;41.14;100232.92;1709037;83;21511;-68
2022/04/30 10:28:57;;;;;;;5.17;3.33;;;;;;;13.63;41.52;100232.43;1746127;82;21300;-68
2022/04/30 10:31:24;;;;;;;9.03;5.95;;;;;;;13.61;41.01;100233.31;1745817;81;21016;-68
2022/04/30 10:33:54;;;;;;;4.15;2.98;;;;;;;13.56;41.34;100235.44;1745451;81;21528;-69
2022/04/30 10:36:23;;;;;;;6.33;3.27;;;;;;;13.49;40.80;100228.97;1767071;80;21571;-68
2022/04/30 10:39:04;;;;;;;5.78;4.20;;;;;;;13.44;41.62;100235.45;1759232;80;21019;-69
2022/04/30 10:41:45;;;;;;;10.30;2.98;;;;;;;13.44;41.21;100238.81;1747328;81;21859;-70
2022/04/30 10:44:17;;;;;;;3.15;2.12;;;;;;;13.42;41.46;100239.69;1716418;83;21556;-68
2022/04/30 10:46:45;;;;;;;5.45;2.87;;;;;;;13.44;40.95;100242.37;1750576;81;22186;-69
2022/04/30 10:49:14;;;;;;;14.80;9.73;;;;;;;13.38;40.63;100237.57;1730002;81;21039;-73
2022/04/30 10:51:52;;;;;;;77.17;55.05;;;;;;;13.39;41.70;100236.42;1718148;83;21013;-73
2022/04/30 10:54:19;;;;;;;16.10;12.30;;;;;;;13.58;42.08;100235.35;1749507;81;21899;-66
2022/04/30 10:56:46;;;;;;;346.80;229.10;;;;;;;13.92;41.57;100234.32;1750136;81;21380;-71
2022/04/30 10:59:24;;;;;;;107.43;78.35;;;;;;;14.32;41.71;100230.56;1746613;81;21004;-71
2022/04/30 11:01:51;;;;;;;83.35;63.73;;;;;;;14.86;40.80;100238.79;1717617;83;21072;-74
2022/04/30 11:04:23;;;;;;;46.28;36.05;;;;;;;15.34;40.28;100231.20;1752303;80;20987;-76
2022/04/30 11:06:53;;;;;;;521.12;320.20;;;;;;;15.78;39.39;100236.47;1748112;80;21156;-62
2022/04/30 11:09:21;;;;;;;1211.78;788.10;;;;;;;15.91;35.89;100235.98;1716901;83;21059;-71
2022/04/30 11:11:50;;;;;;;242.57;162.05;;;;;;;15.54;35.72;100235.77;1695881;83;21104;-65
2022/04/30 11:14:17;;;;;;;100.87;70.25;;;;;;;15.27;35.89;100238.67;1750696;81;21359;-73
2022/04/30 11:16:45;;;;;;;98.27;52.98;;;;;;;15.14;37.07;100241.93;1705920;84;21020;-68
2022/04/30 11:19:16;;;;;;;69.07;45.98;;;;;;;15.27;37.82;100235.10;1705857;83;21245;-69
2022/04/30 11:21:53;;;;;;;103.05;49.70;;;;;;;15.43;37.59;100231.16;1703355;82;21380;-69
2022/04/30 11:24:32;;;;;;;216.17;141.65;;;;;;;15.52;36.88;100230.55;1705192;83;21075;-70
2022/04/30 11:27:05;;;;;;;345.42;221.82;;;;;;;15.58;37.75;100230.58;1699810;83;21543;-72
2022/04/30 11:29:36;;;;;;;1999.90;987.12;;;;;;;15.76;37.72;100224.09;1693123;84;21051;-70
2022/04/30 11:32:06;;;;;;;816.45;641.25;;;;;;;15.96;37.59;100226.63;1691874;84;21622;-65
2022/04/30 11:34:33;;;;;;;529.25;415.88;;;;;;;16.13;38.01;100223.48;1694934;84;20996;-70
2022/04/30 11:37:00;;;;;;;1095.15;770.57;;;;;;;16.29;37.81;100221.69;1694383;84;21101;-67
2022/04/30 11:39:28;;;;;;;442.48;344.90;;;;;;;16.36;37.65;100221.13;1695143;84;21065;-69
2022/04/30 11:41:57;;;;;;;863.92;646.15;;;;;;;16.40;36.97;100219.30;1707049;84;21036;-65
2022/04/30 11:44:27;;;;;;;454.40;357.07;;;;;;;16.45;37.39;100222.44;1705220;82;21076;-71
2022/04/30 11:46:55;;;;;;;263.18;201.88;;;;;;;16.76;37.52;100219.73;1736883;82;21568;-68
2022/04/30 11:49:23;;;;;;;169.77;120.53;;;;;;;17.12;37.44;100217.35;1691581;83;21021;-65
2022/04/30 11:51:54;;;;;;;846.78;627.80;;;;;;;17.39;35.95;100207.23;1690946;84;21060;-67
2022/04/30 11:54:25;;;;;;;125.80;99.75;;;;;;;17.33;34.89;100203.86;1676477;84;21018;-65
2022/04/30 11:56:59;;;;;;;92.75;65.20;;;;;;;17.21;34.94;100205.28;1678864;84;21059;-69
2022/04/30 11:59:39;;;;;;;175.25;133.52;;;;;;;17.01;34.98;100203.61;1701650;84;21058;-70
2022/04/30 12:02:15;;;;;;;99.87;57.20;;;;;;;17.01;35.47;100198.87;1738606;82;21086;-66
2022/04/30 12:04:43;;;;;;;21.73;15.23;;;;;;;17.20;36.13;100193.89;1689277;83;21049;-69
2022/04/30 12:07:13;;;;;;;172.35;147.87;;;;;;;17.40;35.84;100190.16;1684714;84;21049;-74
2022/04/30 12:09:50;;;;;;;144.22;115.85;;;;;;;17.52;36.31;100193.51;1675759;84;21120;-64